sensor_id;sensor_type;location;lat;lon;timestamp;pressure;altitude;pressure_sealevel;temperature;humidity
55517;BME280;41724;51.176;-0.708;2023-04-06T00:00:11;101089.14;;;11.40;81.01
55517;BME280;41724;51.176;-0.708;2023-04-06T00:02:38;101087.00;;;10.92;80.84
55517;BME280;41724;51.176;-0.708;2023-04-06T00:05:06;101084.59;;;10.65;81.57
55517;BME280;41724;51.176;-0.708;2023-04-06T00:07:34;101085.81;;;10.71;81.69
55517;BME280;41724;51.176;-0.708;2023-04-06T00:10:01;101082.83;;;9.86;86.93
55517;BME280;41724;51.176;-0.708;2023-04-06T00:12:28;101078.80;;;10.34;85.37
55517;BME280;41724;51.176;-0.708;2023-04-06T00:14:56;101070.54;;;10.17;86.12
55517;BME280;41724;51.176;-0.708;2023-04-06T00:17:23;101071.53;;;10.13;84.54
55517;BME280;41724;51.176;-0.708;2023-04-06T00:19:50;101067.12;;;9.98;87.48
55517;BME280;41724;51.176;-0.708;2023-04-06T00:22:17;101065.86;;;10.69;85.98
55517;BME280;41724;51.176;-0.708;2023-04-06T00:24:44;101060.27;;;10.42;86.73
55517;BME280;41724;51.176;-0.708;2023-04-06T00:27:11;101060.74;;;10.35;85.63
55517;BME280;41724;51.176;-0.708;2023-04-06T00:29:39;101053.43;;;11.05;82.72
55517;BME280;41724;51.176;-0.708;2023-04-06T00:32:07;101048.75;;;11.07;82.63
55517;BME280;41724;51.176;-0.708;2023-04-06T00:34:34;101051.45;;;10.32;86.42
55517;BME280;41724;51.176;-0.708;2023-04-06T00:37:01;101049.49;;;9.53;90.37
55517;BME280;41724;51.176;-0.708;2023-04-06T00:39:28;101042.54;;;10.66;86.93
55517;BME280;41724;51.176;-0.708;2023-04-06T00:41:55;101036.65;;;10.98;83.43
55517;BME280;41724;51.176;-0.708;2023-04-06T00:44:22;101036.71;;;10.50;83.49
55517;BME280;41724;51.176;-0.708;2023-04-06T00:46:49;101033.23;;;10.62;86.28
55517;BME280;41724;51.176;-0.708;2023-04-06T00:49:16;101031.58;;;10.56;86.39
55517;BME280;41724;51.176;-0.708;2023-04-06T00:51:44;101028.69;;;10.62;85.39
55517;BME280;41724;51.176;-0.708;2023-04-06T00:54:11;101018.79;;;10.96;85.49
55517;BME280;41724;51.176;-0.708;2023-04-06T00:56:38;101017.24;;;10.92;85.25
55517;BME280;41724;51.176;-0.708;2023-04-06T00:59:05;101017.39;;;10.28;87.61
55517;BME280;41724;51.176;-0.708;2023-04-06T01:01:32;101018.03;;;10.28;87.77
55517;BME280;41724;51.176;-0.708;2023-04-06T01:03:59;101016.56;;;10.47;88.32
55517;BME280;41724;51.176;-0.708;2023-04-06T01:06:26;101006.34;;;10.58;87.25
55517;BME280;41724;51.176;-0.708;2023-04-06T01:08:53;101005.42;;;10.30;87.40
55517;BME280;41724;51.176;-0.708;2023-04-06T01:11:20;101002.80;;;10.37;86.97
55517;BME280;41724;51.176;-0.708;2023-04-06T01:13:48;100997.45;;;10.17;88.11
55517;BME280;41724;51.176;-0.708;2023-04-06T01:16:15;100996.04;;;10.17;89.22
55517;BME280;41724;51.176;-0.708;2023-04-06T01:18:42;100989.34;;;10.64;87.14
55517;BME280;41724;51.176;-0.708;2023-04-06T01:21:10;100989.11;;;9.97;88.87
55517;BME280;41724;51.176;-0.708;2023-04-06T01:23:37;100984.88;;;10.05;88.96
55517;BME280;41724;51.176;-0.708;2023-04-06T01:26:04;100980.33;;;9.48;93.25
55517;BME280;41724;51.176;-0.708;2023-04-06T01:28:31;100975.45;;;9.86;90.86
55517;BME280;41724;51.176;-0.708;2023-04-06T01:30:58;100972.47;;;9.86;92.68
55517;BME280;41724;51.176;-0.708;2023-04-06T01:33:25;100973.81;;;10.11;90.43
55517;BME280;41724;51.176;-0.708;2023-04-06T01:35:52;100969.92;;;9.96;89.85
55517;BME280;41724;51.176;-0.708;2023-04-06T01:38:20;100964.82;;;9.27;93.12
55517;BME280;41724;51.176;-0.708;2023-04-06T01:40:47;100966.70;;;9.11;94.65
55517;BME280;41724;51.176;-0.708;2023-04-06T01:43:14;100957.43;;;10.69;89.01
55517;BME280;41724;51.176;-0.708;2023-04-06T01:45:42;100962.08;;;10.10;89.32
55517;BME280;41724;51.176;-0.708;2023-04-06T01:48:09;100955.02;;;10.01;88.86
55517;BME280;41724;51.176;-0.708;2023-04-06T01:50:36;100955.27;;;10.07;89.04
55517;BME280;41724;51.176;-0.708;2023-04-06T01:53:03;100945.67;;;9.40;92.04
55517;BME280;41724;51.176;-0.708;2023-04-06T01:55:30;100945.87;;;9.63;91.47
55517;BME280;41724;51.176;-0.708;2023-04-06T01:57:57;100941.07;;;10.07;90.84
55517;BME280;41724;51.176;-0.708;2023-04-06T02:00:24;100937.39;;;10.35;89.38
55517;BME280;41724;51.176;-0.708;2023-04-06T02:02:52;100937.66;;;9.84;90.14
55517;BME280;41724;51.176;-0.708;2023-04-06T02:05:19;100932.33;;;10.39;88.67
55517;BME280;41724;51.176;-0.708;2023-04-06T02:07:47;100922.52;;;10.72;85.58
55517;BME280;41724;51.176;-0.708;2023-04-06T02:10:14;100918.85;;;11.02;84.84
55517;BME280;41724;51.176;-0.708;2023-04-06T02:12:41;100916.51;;;10.49;85.43
55517;BME280;41724;51.176;-0.708;2023-04-06T02:15:09;100915.65;;;9.90;89.09
55517;BME280;41724;51.176;-0.708;2023-04-06T02:17:36;100917.41;;;9.15;94.20
55517;BME280;41724;51.176;-0.708;2023-04-06T02:20:04;100910.52;;;10.29;89.08
55517;BME280;41724;51.176;-0.708;2023-04-06T02:22:31;100908.76;;;9.96;90.14
55517;BME280;41724;51.176;-0.708;2023-04-06T02:24:59;100912.35;;;10.26;88.33
55517;BME280;41724;51.176;-0.708;2023-04-06T02:27:26;100908.81;;;10.26;88.68
55517;BME280;41724;51.176;-0.708;2023-04-06T02:29:53;100907.07;;;10.29;88.90
55517;BME280;41724;51.176;-0.708;2023-04-06T02:32:20;100903.31;;;10.00;88.94
55517;BME280;41724;51.176;-0.708;2023-04-06T02:34:47;100897.21;;;9.70;92.00
55517;BME280;41724;51.176;-0.708;2023-04-06T02:37:14;100891.78;;;9.63;92.83
55517;BME280;41724;51.176;-0.708;2023-04-06T02:39:41;100891.29;;;9.75;91.68
55517;BME280;41724;51.176;-0.708;2023-04-06T02:42:09;100883.65;;;9.82;90.73
55517;BME280;41724;51.176;-0.708;2023-04-06T02:44:36;100880.16;;;9.72;91.72
55517;BME280;41724;51.176;-0.708;2023-04-06T02:47:03;100879.38;;;9.25;93.59
55517;BME280;41724;51.176;-0.708;2023-04-06T02:49:30;100883.28;;;9.13;97.12
55517;BME280;41724;51.176;-0.708;2023-04-06T02:51:57;100879.08;;;9.60;93.41
55517;BME280;41724;51.176;-0.708;2023-04-06T02:54:24;100873.86;;;9.91;92.61
55517;BME280;41724;51.176;-0.708;2023-04-06T02:56:52;100872.94;;;10.03;91.10
55517;BME280;41724;51.176;-0.708;2023-04-06T02:59:19;100869.30;;;9.86;91.69
55517;BME280;41724;51.176;-0.708;2023-04-06T03:01:46;100865.54;;;10.17;88.25
55517;BME280;41724;51.176;-0.708;2023-04-06T03:04:13;100862.09;;;10.11;87.73
55517;BME280;41724;51.176;-0.708;2023-04-06T03:06:40;100859.85;;;10.84;86.28
55517;BME280;41724;51.176;-0.708;2023-04-06T03:09:08;100854.11;;;10.27;88.55
55517;BME280;41724;51.176;-0.708;2023-04-06T03:11:34;100852.99;;;9.36;92.75
55517;BME280;41724;51.176;-0.708;2023-04-06T03:14:02;100849.15;;;10.26;90.31
55517;BME280;41724;51.176;-0.708;2023-04-06T03:16:29;100847.43;;;10.33;89.51
55517;BME280;41724;51.176;-0.708;2023-04-06T03:18:56;100845.19;;;9.59;94.10
55517;BME280;41724;51.176;-0.708;2023-04-06T03:21:23;100836.94;;;9.56;94.43
55517;BME280;41724;51.176;-0.708;2023-04-06T03:23:50;100842.93;;;9.00;95.99
55517;BME280;41724;51.176;-0.708;2023-04-06T03:26:18;100833.93;;;9.56;94.31
55517;BME280;41724;51.176;-0.708;2023-04-06T03:28:45;100832.42;;;10.08;91.11
55517;BME280;41724;51.176;-0.708;2023-04-06T03:31:12;100830.38;;;10.02;89.50
55517;BME280;41724;51.176;-0.708;2023-04-06T03:33:39;100830.82;;;10.44;89.99
55517;BME280;41724;51.176;-0.708;2023-04-06T03:36:07;100831.89;;;10.05;91.77
55517;BME280;41724;51.176;-0.708;2023-04-06T03:38:34;100831.03;;;9.65;93.53
55517;BME280;41724;51.176;-0.708;2023-04-06T03:41:01;100830.19;;;10.36;91.42
55517;BME280;41724;51.176;-0.708;2023-04-06T03:43:29;100828.61;;;10.25;91.08
55517;BME280;41724;51.176;-0.708;2023-04-06T03:45:56;100828.01;;;10.01;91.88
55517;BME280;41724;51.176;-0.708;2023-04-06T03:48:24;100825.49;;;10.57;89.89
55517;BME280;41724;51.176;-0.708;2023-04-06T03:50:51;100819.35;;;10.26;91.66
55517;BME280;41724;51.176;-0.708;2023-04-06T03:53:18;100822.58;;;9.57;93.89
55517;BME280;41724;51.176;-0.708;2023-04-06T03:55:45;100821.17;;;9.60;96.05
55517;BME280;41724;51.176;-0.708;2023-04-06T03:58:13;100817.80;;;10.01;93.87
55517;BME280;41724;51.176;-0.708;2023-04-06T04:00:40;100815.57;;;10.00;93.39
55517;BME280;41724;51.176;-0.708;2023-04-06T04:03:08;100815.85;;;10.38;92.99
55517;BME280;41724;51.176;-0.708;2023-04-06T04:05:34;100811.22;;;11.02;89.51
55517;BME280;41724;51.176;-0.708;2023-04-06T04:08:02;100810.90;;;10.76;89.59
55517;BME280;41724;51.176;-0.708;2023-04-06T04:10:29;100812.90;;;10.16;92.87
55517;BME280;41724;51.176;-0.708;2023-04-06T04:12:56;100810.38;;;10.43;90.93
55517;BME280;41724;51.176;-0.708;2023-04-06T04:15:23;100810.47;;;10.63;91.05
55517;BME280;41724;51.176;-0.708;2023-04-06T04:17:50;100812.32;;;10.91;89.98
55517;BME280;41724;51.176;-0.708;2023-04-06T04:20:17;100805.54;;;10.70;88.57
55517;BME280;41724;51.176;-0.708;2023-04-06T04:22:44;100807.93;;;10.69;89.82
55517;BME280;41724;51.176;-0.708;2023-04-06T04:25:11;100807.59;;;10.64;88.55
55517;BME280;41724;51.176;-0.708;2023-04-06T04:27:38;100812.58;;;10.76;89.96
55517;BME280;41724;51.176;-0.708;2023-04-06T04:30:07;100805.42;;;10.87;88.39
55517;BME280;41724;51.176;-0.708;2023-04-06T04:32:34;100804.70;;;11.27;87.70
55517;BME280;41724;51.176;-0.708;2023-04-06T04:35:02;100803.51;;;11.75;84.78
55517;BME280;41724;51.176;-0.708;2023-04-06T04:37:29;100802.28;;;10.94;86.59
55517;BME280;41724;51.176;-0.708;2023-04-06T04:39:56;100801.34;;;11.81;83.98
55517;BME280;41724;51.176;-0.708;2023-04-06T04:42:24;100798.16;;;11.80;83.32
55517;BME280;41724;51.176;-0.708;2023-04-06T04:44:51;100795.50;;;10.65;88.02
55517;BME280;41724;51.176;-0.708;2023-04-06T04:47:19;100801.12;;;11.43;85.65
55517;BME280;41724;51.176;-0.708;2023-04-06T04:49:45;100797.38;;;10.81;89.09
55517;BME280;41724;51.176;-0.708;2023-04-06T04:52:13;100797.49;;;11.51;87.32
55517;BME280;41724;51.176;-0.708;2023-04-06T04:54:40;100792.29;;;10.73;90.39
55517;BME280;41724;51.176;-0.708;2023-04-06T04:57:07;100790.49;;;11.06;88.08
55517;BME280;41724;51.176;-0.708;2023-04-06T04:59:34;100779.78;;;11.63;85.82
55517;BME280;41724;51.176;-0.708;2023-04-06T05:02:01;100773.17;;;11.67;84.38
55517;BME280;41724;51.176;-0.708;2023-04-06T05:04:28;100774.43;;;12.24;82.79
55517;BME280;41724;51.176;-0.708;2023-04-06T05:07:03;100780.19;;;11.97;82.42
55517;BME280;41724;51.176;-0.708;2023-04-06T05:09:30;100783.96;;;11.68;85.29
55517;BME280;41724;51.176;-0.708;2023-04-06T05:11:58;100778.40;;;10.42;90.35
55517;BME280;41724;51.176;-0.708;2023-04-06T05:14:26;100773.64;;;11.39;86.99
55517;BME280;41724;51.176;-0.708;2023-04-06T05:16:54;100765.99;;;12.20;83.45
55517;BME280;41724;51.176;-0.708;2023-04-06T05:19:21;100759.85;;;12.33;81.97
55517;BME280;41724;51.176;-0.708;2023-04-06T05:21:48;100765.17;;;13.13;79.98
55517;BME280;41724;51.176;-0.708;2023-04-06T05:24:15;100764.33;;;12.79;79.03
55517;BME280;41724;51.176;-0.708;2023-04-06T05:26:43;100764.19;;;12.83;78.82
55517;BME280;41724;51.176;-0.708;2023-04-06T05:29:10;100764.96;;;12.86;78.43
55517;BME280;41724;51.176;-0.708;2023-04-06T05:31:38;100766.05;;;13.53;76.39
55517;BME280;41724;51.176;-0.708;2023-04-06T05:34:05;100770.06;;;13.17;75.93
55517;BME280;41724;51.176;-0.708;2023-04-06T05:36:32;100767.26;;;13.63;75.65
55517;BME280;41724;51.176;-0.708;2023-04-06T05:38:59;100772.64;;;13.11;75.69
55517;BME280;41724;51.176;-0.708;2023-04-06T05:41:26;100775.57;;;13.27;75.13
55517;BME280;41724;51.176;-0.708;2023-04-06T05:43:53;100777.08;;;12.43;79.49
55517;BME280;41724;51.176;-0.708;2023-04-06T05:46:20;100773.42;;;12.86;78.68
55517;BME280;41724;51.176;-0.708;2023-04-06T05:48:47;100769.01;;;12.40;78.57
55517;BME280;41724;51.176;-0.708;2023-04-06T05:51:14;100772.82;;;12.60;79.13
55517;BME280;41724;51.176;-0.708;2023-04-06T05:53:41;100770.85;;;12.64;79.20
55517;BME280;41724;51.176;-0.708;2023-04-06T05:56:08;100778.90;;;11.62;83.43
55517;BME280;41724;51.176;-0.708;2023-04-06T05:58:35;100775.19;;;11.78;83.64
55517;BME280;41724;51.176;-0.708;2023-04-06T06:01:03;100773.91;;;11.82;84.26
55517;BME280;41724;51.176;-0.708;2023-04-06T06:03:31;100788.28;;;11.28;86.01
55517;BME280;41724;51.176;-0.708;2023-04-06T06:06:01;100790.31;;;12.07;83.54
55517;BME280;41724;51.176;-0.708;2023-04-06T06:08:28;100792.23;;;11.72;84.22
55517;BME280;41724;51.176;-0.708;2023-04-06T06:10:56;100787.84;;;12.14;82.90
55517;BME280;41724;51.176;-0.708;2023-04-06T06:13:24;100787.77;;;12.14;82.12
55517;BME280;41724;51.176;-0.708;2023-04-06T06:15:50;100785.18;;;11.84;83.93
55517;BME280;41724;51.176;-0.708;2023-04-06T06:18:18;100790.40;;;11.54;84.90
55517;BME280;41724;51.176;-0.708;2023-04-06T06:20:45;100785.95;;;11.94;84.79
55517;BME280;41724;51.176;-0.708;2023-04-06T06:23:12;100772.71;;;11.86;83.48
55517;BME280;41724;51.176;-0.708;2023-04-06T06:25:39;100765.06;;;12.17;82.21
55517;BME280;41724;51.176;-0.708;2023-04-06T06:28:06;100762.27;;;12.64;79.74
55517;BME280;41724;51.176;-0.708;2023-04-06T06:30:33;100770.54;;;12.51;79.20
55517;BME280;41724;51.176;-0.708;2023-04-06T06:33:00;100773.37;;;12.81;78.82
55517;BME280;41724;51.176;-0.708;2023-04-06T06:35:27;100777.75;;;13.33;77.34
55517;BME280;41724;51.176;-0.708;2023-04-06T06:37:54;100782.08;;;12.49;77.78
55517;BME280;41724;51.176;-0.708;2023-04-06T06:40:21;100776.23;;;13.10;76.88
55517;BME280;41724;51.176;-0.708;2023-04-06T06:42:49;100774.27;;;12.63;77.75
55517;BME280;41724;51.176;-0.708;2023-04-06T06:45:16;100782.67;;;13.18;77.08
55517;BME280;41724;51.176;-0.708;2023-04-06T06:47:43;100795.96;;;12.77;76.97
55517;BME280;41724;51.176;-0.708;2023-04-06T06:50:10;100796.95;;;12.18;78.36
55517;BME280;41724;51.176;-0.708;2023-04-06T06:52:37;100797.58;;;12.52;77.77
55517;BME280;41724;51.176;-0.708;2023-04-06T06:55:04;100794.86;;;12.56;77.79
55517;BME280;41724;51.176;-0.708;2023-04-06T06:57:32;100800.18;;;12.16;77.43
55517;BME280;41724;51.176;-0.708;2023-04-06T06:59:59;100806.26;;;11.66;78.75
55517;BME280;41724;51.176;-0.708;2023-04-06T07:02:26;100803.58;;;11.85;78.14
55517;BME280;41724;51.176;-0.708;2023-04-06T07:04:53;100805.58;;;11.77;78.94
55517;BME280;41724;51.176;-0.708;2023-04-06T07:07:20;100807.09;;;12.09;77.14
55517;BME280;41724;51.176;-0.708;2023-04-06T07:09:47;100809.00;;;11.32;79.48
55517;BME280;41724;51.176;-0.708;2023-04-06T07:12:15;100812.36;;;11.27;80.53
55517;BME280;41724;51.176;-0.708;2023-04-06T07:14:42;100809.90;;;11.96;78.18
55517;BME280;41724;51.176;-0.708;2023-04-06T07:17:09;100815.58;;;10.74;80.49
55517;BME280;41724;51.176;-0.708;2023-04-06T07:19:36;100813.39;;;11.29;81.28
55517;BME280;41724;51.176;-0.708;2023-04-06T07:22:03;100822.38;;;11.44;79.78
55517;BME280;41724;51.176;-0.708;2023-04-06T07:24:30;100814.95;;;10.83;80.58
55517;BME280;41724;51.176;-0.708;2023-04-06T07:26:58;100823.70;;;10.39;82.93
55517;BME280;41724;51.176;-0.708;2023-04-06T07:29:26;100821.39;;;11.18;80.68
55517;BME280;41724;51.176;-0.708;2023-04-06T07:31:53;100824.34;;;10.34;81.60
55517;BME280;41724;51.176;-0.708;2023-04-06T07:34:20;100824.49;;;10.69;81.15
55517;BME280;41724;51.176;-0.708;2023-04-06T07:36:47;100824.72;;;10.92;79.06
55517;BME280;41724;51.176;-0.708;2023-04-06T07:39:15;100833.54;;;11.23;79.46
55517;BME280;41724;51.176;-0.708;2023-04-06T07:41:42;100828.52;;;10.83;80.09
55517;BME280;41724;51.176;-0.708;2023-04-06T07:44:09;100832.67;;;9.99;83.02
55517;BME280;41724;51.176;-0.708;2023-04-06T07:46:36;100825.34;;;10.94;81.28
55517;BME280;41724;51.176;-0.708;2023-04-06T07:49:03;100828.58;;;10.09;81.96
55517;BME280;41724;51.176;-0.708;2023-04-06T07:51:30;100833.45;;;11.45;78.60
55517;BME280;41724;51.176;-0.708;2023-04-06T07:53:57;100828.77;;;11.83;76.34
55517;BME280;41724;51.176;-0.708;2023-04-06T07:56:25;100828.03;;;12.05;76.00
55517;BME280;41724;51.176;-0.708;2023-04-06T07:58:52;100825.47;;;11.95;76.46
55517;BME280;41724;51.176;-0.708;2023-04-06T08:01:19;100824.12;;;11.09;77.93
55517;BME280;41724;51.176;-0.708;2023-04-06T08:03:46;100820.14;;;11.10;78.51
55517;BME280;41724;51.176;-0.708;2023-04-06T08:06:13;100818.49;;;12.25;76.17
55517;BME280;41724;51.176;-0.708;2023-04-06T08:08:41;100817.35;;;12.39;74.65
55517;BME280;41724;51.176;-0.708;2023-04-06T08:11:08;100818.75;;;12.31;75.59
55517;BME280;41724;51.176;-0.708;2023-04-06T08:13:36;100817.71;;;12.96;72.32
55517;BME280;41724;51.176;-0.708;2023-04-06T08:16:04;100819.46;;;12.37;73.30
55517;BME280;41724;51.176;-0.708;2023-04-06T08:18:31;100820.10;;;12.42;74.18
55517;BME280;41724;51.176;-0.708;2023-04-06T08:20:58;100821.06;;;11.44;76.05
55517;BME280;41724;51.176;-0.708;2023-04-06T08:23:25;100812.21;;;11.46;75.39
55517;BME280;41724;51.176;-0.708;2023-04-06T08:25:52;100816.25;;;12.04;75.64
55517;BME280;41724;51.176;-0.708;2023-04-06T08:28:19;100813.21;;;11.90;77.12
55517;BME280;41724;51.176;-0.708;2023-04-06T08:30:46;100817.98;;;11.11;79.46
55517;BME280;41724;51.176;-0.708;2023-04-06T08:33:13;100816.93;;;12.39;76.40
55517;BME280;41724;51.176;-0.708;2023-04-06T08:35:40;100814.63;;;12.69;75.48
55517;BME280;41724;51.176;-0.708;2023-04-06T08:38:07;100816.46;;;12.48;75.20
55517;BME280;41724;51.176;-0.708;2023-04-06T08:40:36;100824.97;;;12.19;76.11
55517;BME280;41724;51.176;-0.708;2023-04-06T08:43:06;100825.75;;;12.11;77.07
55517;BME280;41724;51.176;-0.708;2023-04-06T08:45:35;100827.62;;;11.78;80.07
55517;BME280;41724;51.176;-0.708;2023-04-06T08:48:03;100831.99;;;11.46;77.78
55517;BME280;41724;51.176;-0.708;2023-04-06T08:50:33;100826.21;;;12.26;76.03
55517;BME280;41724;51.176;-0.708;2023-04-06T08:53:01;100832.91;;;11.26;77.34
55517;BME280;41724;51.176;-0.708;2023-04-06T08:55:28;100834.06;;;12.00;76.39
55517;BME280;41724;51.176;-0.708;2023-04-06T08:57:55;100832.89;;;11.63;77.96
55517;BME280;41724;51.176;-0.708;2023-04-06T09:00:23;100835.76;;;11.94;77.25
55517;BME280;41724;51.176;-0.708;2023-04-06T09:02:53;100834.93;;;11.33;77.46
55517;BME280;41724;51.176;-0.708;2023-04-06T09:05:24;100838.44;;;12.10;74.56
55517;BME280;41724;51.176;-0.708;2023-04-06T09:07:52;100846.27;;;12.15;75.71
55517;BME280;41724;51.176;-0.708;2023-04-06T09:10:20;100841.69;;;13.23;72.54
55517;BME280;41724;51.176;-0.708;2023-04-06T09:12:47;100849.32;;;12.86;71.24
55517;BME280;41724;51.176;-0.708;2023-04-06T09:15:22;100852.47;;;12.65;72.05
55517;BME280;41724;51.176;-0.708;2023-04-06T09:17:49;100852.70;;;11.83;74.57
55517;BME280;41724;51.176;-0.708;2023-04-06T09:20:22;100843.73;;;12.93;73.38
55517;BME280;41724;51.176;-0.708;2023-04-06T09:22:49;100845.78;;;12.63;72.75
55517;BME280;41724;51.176;-0.708;2023-04-06T09:25:20;100846.21;;;12.40;72.11
55517;BME280;41724;51.176;-0.708;2023-04-06T09:27:48;100844.85;;;12.93;73.03
55517;BME280;41724;51.176;-0.708;2023-04-06T09:30:24;100841.94;;;13.17;71.36
55517;BME280;41724;51.176;-0.708;2023-04-06T09:32:53;100859.98;;;12.63;71.78
55517;BME280;41724;51.176;-0.708;2023-04-06T09:35:21;100851.81;;;12.58;72.79
55517;BME280;41724;51.176;-0.708;2023-04-06T09:37:50;100846.02;;;12.95;73.81
55517;BME280;41724;51.176;-0.708;2023-04-06T09:40:18;100860.85;;;13.36;69.71
55517;BME280;41724;51.176;-0.708;2023-04-06T09:42:46;100848.39;;;12.23;71.39
55517;BME280;41724;51.176;-0.708;2023-04-06T09:45:14;100845.95;;;12.29;72.53
55517;BME280;41724;51.176;-0.708;2023-04-06T09:47:44;100845.85;;;12.71;69.37
55517;BME280;41724;51.176;-0.708;2023-04-06T09:50:13;100845.01;;;13.37;68.68
55517;BME280;41724;51.176;-0.708;2023-04-06T09:52:43;100848.15;;;13.92;67.18
55517;BME280;41724;51.176;-0.708;2023-04-06T09:55:19;100849.42;;;14.79;64.35
55517;BME280;41724;51.176;-0.708;2023-04-06T09:57:53;100848.73;;;13.52;62.70
55517;BME280;41724;51.176;-0.708;2023-04-06T10:00:22;100848.96;;;12.76;67.86
55517;BME280;41724;51.176;-0.708;2023-04-06T10:02:56;100852.01;;;13.20;66.22
55517;BME280;41724;51.176;-0.708;2023-04-06T10:05:32;100847.61;;;13.30;68.11
55517;BME280;41724;51.176;-0.708;2023-04-06T10:08:04;100840.75;;;13.27;67.11
55517;BME280;41724;51.176;-0.708;2023-04-06T10:10:32;100837.98;;;13.59;63.80
55517;BME280;41724;51.176;-0.708;2023-04-06T10:12:59;100837.54;;;14.87;64.27
55517;BME280;41724;51.176;-0.708;2023-04-06T10:15:27;100840.81;;;14.58;60.94
55517;BME280;41724;51.176;-0.708;2023-04-06T10:17:55;100839.84;;;14.77;60.82
55517;BME280;41724;51.176;-0.708;2023-04-06T10:20:27;100845.68;;;13.93;60.50
55517;BME280;41724;51.176;-0.708;2023-04-06T10:22:59;100854.02;;;13.52;61.74
55517;BME280;41724;51.176;-0.708;2023-04-06T10:25:29;100859.48;;;13.06;60.81
55517;BME280;41724;51.176;-0.708;2023-04-06T10:28:01;100874.74;;;13.95;57.63
55517;BME280;41724;51.176;-0.708;2023-04-06T10:30:29;100859.84;;;14.32;59.36
55517;BME280;41724;51.176;-0.708;2023-04-06T10:32:57;100868.31;;;14.48;56.34
55517;BME280;41724;51.176;-0.708;2023-04-06T10:35:36;100862.30;;;13.92;58.20
55517;BME280;41724;51.176;-0.708;2023-04-06T10:38:04;100859.66;;;14.42;56.92
55517;BME280;41724;51.176;-0.708;2023-04-06T10:40:32;100862.30;;;13.67;58.66
55517;BME280;41724;51.176;-0.708;2023-04-06T10:43:09;100855.74;;;14.41;57.64
55517;BME280;41724;51.176;-0.708;2023-04-06T10:45:36;100859.58;;;14.55;54.97
55517;BME280;41724;51.176;-0.708;2023-04-06T10:48:13;100869.29;;;15.30;55.30
55517;BME280;41724;51.176;-0.708;2023-04-06T10:50:42;100872.37;;;14.50;55.42
55517;BME280;41724;51.176;-0.708;2023-04-06T10:53:10;100874.93;;;14.18;56.48
55517;BME280;41724;51.176;-0.708;2023-04-06T10:55:50;100870.60;;;14.75;55.51
55517;BME280;41724;51.176;-0.708;2023-04-06T10:58:17;100874.86;;;15.81;53.69
55517;BME280;41724;51.176;-0.708;2023-04-06T11:00:45;100875.03;;;14.97;52.62
55517;BME280;41724;51.176;-0.708;2023-04-06T11:03:13;100875.98;;;14.79;53.89
55517;BME280;41724;51.176;-0.708;2023-04-06T11:05:44;100881.57;;;15.98;51.07
55517;BME280;41724;51.176;-0.708;2023-04-06T11:08:24;100878.87;;;16.26;50.70
55517;BME280;41724;51.176;-0.708;2023-04-06T11:10:51;100880.26;;;15.11;50.67
55517;BME280;41724;51.176;-0.708;2023-04-06T11:13:18;100882.14;;;14.80;51.32
55517;BME280;41724;51.176;-0.708;2023-04-06T11:15:45;100874.38;;;14.93;51.70
55517;BME280;41724;51.176;-0.708;2023-04-06T11:18:12;100876.88;;;14.61;51.84
55517;BME280;41724;51.176;-0.708;2023-04-06T11:20:47;100876.23;;;14.91;52.12
55517;BME280;41724;51.176;-0.708;2023-04-06T11:23:22;100870.43;;;15.54;51.68
55517;BME280;41724;51.176;-0.708;2023-04-06T11:25:51;100875.07;;;15.45;46.77
55517;BME280;41724;51.176;-0.708;2023-04-06T11:28:18;100870.60;;;15.03;48.05
55517;BME280;41724;51.176;-0.708;2023-04-06T11:30:47;100878.60;;;15.11;48.50
55517;BME280;41724;51.176;-0.708;2023-04-06T11:33:20;100882.87;;;15.70;48.65
55517;BME280;41724;51.176;-0.708;2023-04-06T11:35:48;100890.41;;;14.70;49.33
55517;BME280;41724;51.176;-0.708;2023-04-06T11:38:16;100888.75;;;15.05;49.18
55517;BME280;41724;51.176;-0.708;2023-04-06T11:40:46;100884.29;;;15.45;49.72
55517;BME280;41724;51.176;-0.708;2023-04-06T11:43:14;100882.10;;;14.92;49.41
55517;BME280;41724;51.176;-0.708;2023-04-06T11:45:42;100878.06;;;15.98;48.53
55517;BME280;41724;51.176;-0.708;2023-04-06T11:48:18;100884.75;;;16.12;51.31
55517;BME280;41724;51.176;-0.708;2023-04-06T11:50:46;100870.27;;;16.53;48.40
55517;BME280;41724;51.176;-0.708;2023-04-06T11:53:13;100869.20;;;16.87;48.63
55517;BME280;41724;51.176;-0.708;2023-04-06T11:55:40;100883.13;;;15.78;48.79
55517;BME280;41724;51.176;-0.708;2023-04-06T11:58:07;100883.39;;;15.49;44.92
55517;BME280;41724;51.176;-0.708;2023-04-06T12:00:34;100871.63;;;15.21;44.46
55517;BME280;41724;51.176;-0.708;2023-04-06T12:03:03;100870.27;;;16.08;44.57
55517;BME280;41724;51.176;-0.708;2023-04-06T12:05:30;100869.58;;;16.05;44.93
55517;BME280;41724;51.176;-0.708;2023-04-06T12:07:57;100871.98;;;16.02;44.55
55517;BME280;41724;51.176;-0.708;2023-04-06T12:10:24;100871.61;;;15.86;46.50
55517;BME280;41724;51.176;-0.708;2023-04-06T12:12:51;100880.53;;;15.74;44.93
55517;BME280;41724;51.176;-0.708;2023-04-06T12:15:18;100882.51;;;16.16;44.86
55517;BME280;41724;51.176;-0.708;2023-04-06T12:17:45;100886.14;;;16.40;44.44
55517;BME280;41724;51.176;-0.708;2023-04-06T12:20:12;100888.80;;;15.93;44.22
55517;BME280;41724;51.176;-0.708;2023-04-06T12:22:39;100901.31;;;15.00;44.85
55517;BME280;41724;51.176;-0.708;2023-04-06T12:25:07;100898.77;;;14.58;45.69
55517;BME280;41724;51.176;-0.708;2023-04-06T12:27:34;100902.55;;;14.51;45.24
55517;BME280;41724;51.176;-0.708;2023-04-06T12:30:01;100904.04;;;14.66;45.89
55517;BME280;41724;51.176;-0.708;2023-04-06T12:32:28;100900.47;;;15.11;43.98
55517;BME280;41724;51.176;-0.708;2023-04-06T12:34:56;100909.00;;;14.30;46.59
55517;BME280;41724;51.176;-0.708;2023-04-06T12:37:23;100916.10;;;14.84;43.93
55517;BME280;41724;51.176;-0.708;2023-04-06T12:39:51;100913.85;;;15.22;45.18
55517;BME280;41724;51.176;-0.708;2023-04-06T12:42:18;100920.29;;;15.24;45.40